Jump to content


DELTA AIRLINES FLIGHT DL980 FLOWN ON 04-03-2018 BY CAPTAIN DEREK ROGY

Pilot StatsCaptain Derek Rogy (LDP86) • 1,600.5 total hours • 835 total flights [View Logbook]
FLIGHT DETAILS
StatusReceived and approved on 2018-04-03 at 19:04:25
Origin AirportEldorado Intl (SKBO) • Bogota, Colombia (8,358 feet MSL)
Filed Flight PlanFLIGHT PLANNER OFFLINE
Destination AirportHartsfield - Jackson Atlanta I (KATL) • Atlanta, Georgia, United States (1,026 feet MSL)
Alternate AirportNone Filed
AirlineDelta Airlines
AircraftBoeing 757-200 | Winglets (75W / B757-200)
FS Aircraft Used757-200 Delta N535US ETOPS Winglets
Cruising AltitudeFL360
Distance Flown1,829 nautical miles
Passengers Onboard100 passengers (53.76% full)
DEPARTURE DETAILS
Time Out06:38:21
Taxi Data182,853 lbs total with 54,013 lbs of fuel onboard
Takeoff Data07:10:24 (32 minutes after leaving gate/ramp) • 181,773 lbs total • 7° pitch at 143 knots
Departure METARSKBO 031800Z 28010KT 9999 2000NE/N -TSRA SCT015CB SCT200 16/12 A3028 RMK CB NE/E
ARRIVAL DETAILS
Landing Data11:30:12 • 153,312 lbs total • 3° pitch doing 121 knots at a rate of -333.72 feet/minute with 24,286 lbs of fuel onboard
Time In11:32:38 (2 minutes after landing)
Ramp Weight153,127 lbs total
Total Fuel Used29,727 lbs
Total Block Time04:54:44 (4.9 hours) while 34 minutes were spent on the ground
Arrival METARKATL 032252Z 22013G21KT 10SM FEW045 FEW070 SCT250 26/14 A2990 RMK AO2 SLP119 T02610139
MISCELLANEOUS DETAILS
LiveDISPATCH Version4.8.3.1
FS Version
FSUIPC Version5.12
OS VersionWindows 7 32-bit
Screen Resolution1920 x 1200
Pilot's CommentsNo Comments Reported
FLIGHT MAP